createdAt,value
2023-05-02T00:01:38.074Z,3.22
2023-05-02T00:03:39.772Z,3.33
2023-05-02T00:05:41.465Z,3.60
2023-05-02T00:07:43.033Z,3.35
2023-05-02T00:09:44.573Z,2.90
2023-05-02T00:11:46.120Z,3.30
2023-05-02T00:13:47.602Z,3.53
2023-05-02T00:15:49.162Z,2.92
2023-05-02T00:17:51.055Z,3.22
2023-05-02T00:19:52.675Z,3.60
2023-05-02T00:21:54.196Z,3.75
2023-05-02T00:23:58.969Z,2.70
2023-05-02T00:26:00.513Z,3.28
2023-05-02T00:28:02.018Z,2.45
2023-05-02T00:30:03.891Z,2.58
2023-05-02T00:32:05.980Z,3.35
2023-05-02T00:34:07.507Z,2.97
2023-05-02T00:36:19.080Z,3.47
2023-05-02T00:38:20.547Z,3.33
2023-05-02T00:40:22.516Z,3.33
2023-05-02T00:42:24.146Z,3.33
2023-05-02T00:44:25.749Z,3.60
2023-05-02T00:46:27.459Z,3.13
2023-05-02T00:48:29.115Z,3.47
2023-05-02T00:50:31.768Z,3.10
2023-05-02T00:52:33.522Z,3.60
2023-05-02T00:54:38.409Z,3.92
2023-05-02T00:56:40.141Z,3.42
2023-05-02T00:58:42.094Z,3.75
2023-05-02T01:01:37.984Z,3.40
2023-05-02T01:04:18.566Z,3.20
2023-05-02T01:06:32.075Z,3.30
2023-05-02T01:08:42.432Z,3.08
2023-05-02T01:10:59.282Z,2.92
2023-05-02T01:13:13.804Z,2.65
2023-05-02T01:15:18.451Z,3.50
2023-05-02T01:17:21.357Z,2.55
2023-05-02T01:19:26.953Z,2.65
2023-05-02T01:21:28.678Z,2.80
2023-05-02T01:24:03.025Z,2.90
2023-05-02T01:26:16.263Z,3.33
2023-05-02T01:28:37.087Z,2.22
2023-05-02T01:30:42.586Z,3.10
2023-05-02T01:32:46.115Z,2.92
2023-05-02T01:34:48.957Z,3.33
2023-05-02T01:36:51.373Z,3.10
2023-05-02T01:38:55.529Z,2.70
2023-05-02T01:40:58.933Z,2.58
2023-05-02T01:43:01.019Z,2.97
2023-05-02T01:45:04.661Z,2.72
2023-05-02T01:47:07.882Z,2.72
2023-05-02T01:49:09.544Z,2.10
2023-05-02T01:51:11.759Z,2.60
2023-05-02T01:53:15.042Z,2.35
2023-05-02T01:55:17.762Z,2.33
2023-05-02T01:57:19.359Z,2.20
2023-05-02T01:59:22.938Z,2.63
2023-05-02T02:01:27.526Z,1.85
2023-05-02T02:03:31.327Z,2.17
2023-05-02T02:05:35.081Z,2.55
2023-05-02T02:07:36.678Z,2.42
2023-05-02T02:09:38.324Z,2.35
2023-05-02T02:11:46.860Z,1.85
2023-05-02T02:13:50.685Z,2.03
2023-05-02T02:15:54.051Z,2.60
2023-05-02T02:18:00.353Z,2.63
2023-05-02T02:20:03.664Z,3.22
2023-05-02T02:22:06.793Z,3.80
2023-05-02T02:24:09.081Z,3.25
2023-05-02T02:26:11.060Z,2.65
2023-05-02T02:28:12.822Z,3.20
2023-05-02T02:30:14.467Z,4.03
2023-05-02T02:32:16.072Z,2.75
2023-05-02T02:34:17.642Z,2.90
2023-05-02T02:36:27.070Z,2.65
2023-05-02T02:38:43.603Z,2.85
2023-05-02T02:40:49.937Z,3.08
2023-05-02T02:43:20.792Z,2.60
2023-05-02T02:45:32.831Z,3.42
2023-05-02T02:47:43.843Z,3.00
2023-05-02T02:50:05.299Z,3.70
2023-05-02T02:52:22.696Z,3.15
2023-05-02T02:54:27.140Z,3.05
2023-05-02T02:56:36.628Z,2.80
2023-05-02T02:58:55.349Z,2.80
2023-05-02T03:00:57.334Z,3.25
2023-05-02T03:02:58.930Z,2.70
2023-05-02T03:05:01.458Z,2.55
2023-05-02T03:07:02.942Z,3.17
2023-05-02T03:09:04.502Z,2.50
2023-05-02T03:11:06.010Z,3.63
2023-05-02T03:13:07.581Z,3.03
2023-05-02T03:15:27.760Z,3.28
2023-05-02T03:17:29.307Z,4.32
2023-05-02T03:19:31.331Z,4.38
2023-05-02T03:21:33.374Z,4.15
2023-05-02T03:23:34.911Z,5.20
2023-05-02T03:25:36.981Z,4.45
2023-05-02T03:27:38.470Z,4.03
2023-05-02T03:29:40.081Z,4.57
2023-05-02T03:31:41.761Z,4.40
2023-05-02T03:33:43.614Z,3.75
2023-05-02T03:35:45.243Z,4.50
2023-05-02T03:37:46.783Z,4.15
2023-05-02T03:39:48.305Z,3.28
2023-05-02T03:41:49.883Z,2.80
2023-05-02T03:43:51.803Z,3.33
2023-05-02T03:45:53.337Z,3.17
2023-05-02T03:47:54.879Z,3.58
2023-05-02T03:49:56.568Z,2.50
2023-05-02T03:51:58.149Z,3.33
2023-05-02T03:54:02.312Z,3.50
2023-05-02T03:56:04.515Z,3.38
2023-05-02T03:58:06.090Z,3.58
2023-05-02T04:00:08.268Z,3.35
2023-05-02T04:02:11.281Z,3.40
2023-05-02T04:04:13.169Z,3.08
2023-05-02T04:06:14.799Z,3.90
2023-05-02T04:08:17.275Z,3.97
2023-05-02T04:10:18.811Z,3.75
2023-05-02T04:12:20.472Z,4.38
2023-05-02T04:14:22.011Z,4.78
2023-05-02T04:16:23.567Z,4.95
2023-05-02T04:18:25.116Z,5.55
2023-05-02T04:20:26.662Z,5.20
2023-05-02T04:22:28.174Z,5.13
2023-05-02T04:24:29.669Z,4.95
2023-05-02T04:26:31.178Z,4.50
2023-05-02T04:28:32.875Z,5.10
2023-05-02T04:30:34.435Z,4.88
2023-05-02T04:32:36.554Z,5.90
2023-05-02T04:34:38.147Z,5.40
2023-05-02T04:36:40.135Z,5.90
2023-05-02T04:38:42.199Z,5.95
2023-05-02T04:40:43.693Z,5.20
2023-05-02T04:42:45.952Z,4.68
2023-05-02T04:44:48.926Z,4.82
2023-05-02T04:46:50.591Z,4.60
2023-05-02T04:48:52.230Z,4.20
2023-05-02T04:50:53.812Z,3.90
2023-05-02T04:52:55.465Z,4.57
2023-05-02T04:54:57.246Z,3.58
2023-05-02T04:56:59.482Z,5.57
2023-05-02T04:59:01.040Z,5.15
2023-05-02T05:01:02.512Z,4.65
2023-05-02T05:03:04.199Z,4.28
2023-05-02T05:05:06.389Z,4.68
2023-05-02T05:07:07.919Z,4.78
2023-05-02T05:09:09.439Z,4.30
2023-05-02T05:11:11.021Z,4.93
2023-05-02T05:13:14.161Z,3.75
2023-05-02T05:15:16.021Z,5.82
2023-05-02T05:17:19.102Z,5.03
2023-05-02T05:19:21.995Z,4.75
2023-05-02T05:21:26.978Z,5.22
2023-05-02T05:23:32.959Z,4.63
2023-05-02T05:25:36.147Z,5.53
2023-05-02T05:27:39.597Z,5.70
2023-05-02T05:29:42.357Z,5.90
2023-05-02T05:31:48.437Z,6.63
2023-05-02T05:33:51.429Z,6.95
2023-05-02T05:35:57.065Z,6.28
2023-05-02T05:38:00.828Z,7.47
2023-05-02T05:40:10.132Z,8.90
2023-05-02T05:42:13.391Z,7.40
2023-05-02T05:44:16.053Z,8.75
2023-05-02T05:46:21.412Z,9.27
2023-05-02T05:48:24.205Z,9.27
2023-05-02T05:50:26.161Z,9.23
2023-05-02T05:52:27.882Z,10.98
2023-05-02T05:54:32.584Z,10.90
2023-05-02T05:56:35.421Z,11.15
2023-05-02T05:58:38.040Z,11.68
2023-05-02T06:00:42.028Z,11.13
2023-05-02T06:02:43.585Z,11.35
2023-05-02T06:04:47.604Z,10.57
2023-05-02T06:06:51.370Z,11.35
2023-05-02T06:08:54.173Z,11.70
2023-05-02T06:10:55.838Z,13.35
2023-05-02T06:12:57.890Z,14.02
2023-05-02T06:14:59.576Z,14.13
2023-05-02T06:17:01.080Z,13.80
2023-05-02T06:19:02.745Z,14.18
2023-05-02T06:21:06.658Z,13.80
2023-05-02T06:23:10.855Z,14.10
2023-05-02T06:25:13.142Z,11.85
2023-05-02T06:27:15.766Z,12.38
2023-05-02T06:29:17.351Z,13.10
2023-05-02T06:31:19.746Z,12.88
2023-05-02T06:33:38.939Z,12.43
2023-05-02T06:36:02.327Z,13.10
2023-05-02T06:38:19.923Z,13.90
2023-05-02T06:40:24.532Z,11.63
2023-05-02T06:42:32.377Z,16.75
2023-05-02T06:44:48.472Z,16.17
2023-05-02T06:46:51.712Z,18.88
2023-05-02T06:48:55.985Z,21.67
2023-05-02T06:50:59.186Z,22.27
2023-05-02T06:53:17.454Z,19.52
2023-05-02T06:55:34.518Z,15.20
2023-05-02T06:57:40.074Z,16.13
2023-05-02T06:59:54.046Z,17.95
2023-05-02T07:01:59.106Z,18.38
2023-05-02T07:04:07.351Z,18.60
2023-05-02T07:06:13.358Z,24.15
2023-05-02T07:08:48.306Z,26.23
2023-05-02T07:11:08.931Z,26.02
2023-05-02T07:13:14.916Z,29.10
2023-05-02T07:15:20.441Z,28.13
2023-05-02T07:17:26.325Z,27.55
2023-05-02T07:19:33.080Z,28.10
2023-05-02T07:21:35.525Z,26.70
2023-05-02T07:23:42.070Z,25.25
2023-05-02T07:25:45.935Z,25.48
2023-05-02T07:27:52.300Z,27.30
2023-05-02T07:29:56.265Z,25.83
2023-05-02T07:31:59.846Z,26.50
2023-05-02T07:34:02.877Z,27.75
2023-05-02T07:36:07.585Z,27.20
2023-05-02T07:38:22.607Z,26.63
2023-05-02T07:40:35.044Z,25.98
2023-05-02T07:42:41.100Z,25.02
2023-05-02T07:44:44.511Z,25.48
2023-05-02T07:46:53.343Z,25.50
2023-05-02T07:48:58.546Z,25.75
2023-05-02T07:51:11.443Z,28.23
2023-05-02T07:53:15.473Z,28.38
2023-05-02T07:55:22.902Z,27.88
2023-05-02T07:57:36.347Z,29.40
2023-05-02T07:59:40.667Z,27.52
2023-05-02T08:01:45.315Z,26.58
2023-05-02T08:03:48.924Z,29.13
2023-05-02T08:05:50.549Z,27.33
2023-05-02T08:07:52.251Z,27.65
2023-05-02T08:09:54.961Z,27.20
2023-05-02T08:11:57.560Z,27.70
2023-05-02T08:13:59.192Z,26.77
2023-05-02T08:16:00.781Z,25.88
2023-05-02T08:18:02.555Z,26.13
2023-05-02T08:20:04.412Z,24.85
2023-05-02T08:22:06.574Z,25.35
2023-05-02T08:24:08.182Z,24.77
2023-05-02T08:26:09.801Z,24.45
2023-05-02T08:28:15.690Z,25.08
2023-05-02T08:30:20.918Z,22.85
2023-05-02T08:32:31.601Z,24.83
2023-05-02T08:34:39.614Z,23.17
2023-05-02T08:36:46.315Z,22.67
2023-05-02T08:38:50.422Z,22.45
2023-05-02T08:40:54.489Z,23.30
2023-05-02T08:43:27.481Z,22.00
2023-05-02T08:46:32.561Z,21.23
2023-05-02T08:48:39.821Z,21.65
2023-05-02T08:50:47.536Z,22.90
2023-05-02T08:52:52.018Z,22.85
2023-05-02T08:54:57.329Z,21.27
2023-05-02T08:56:59.586Z,22.77
2023-05-02T08:59:02.901Z,20.73
2023-05-02T09:01:16.287Z,22.95
2023-05-02T09:03:32.853Z,21.58
2023-05-02T09:05:41.932Z,21.95
2023-05-02T09:07:47.881Z,22.45
2023-05-02T09:09:53.583Z,21.77
2023-05-02T09:11:56.564Z,20.25
2023-05-02T09:14:04.992Z,20.15
2023-05-02T09:16:18.075Z,19.23
2023-05-02T09:18:22.302Z,19.98
2023-05-02T09:20:26.226Z,18.70
2023-05-02T09:22:29.795Z,18.45
2023-05-02T09:24:33.747Z,19.00
2023-05-02T09:26:38.263Z,18.90
2023-05-02T09:28:45.021Z,19.30
2023-05-02T09:30:49.214Z,20.15
2023-05-02T09:32:56.360Z,19.05
2023-05-02T09:35:10.624Z,20.35
2023-05-02T09:37:37.760Z,20.63
2023-05-02T09:39:40.914Z,18.67
2023-05-02T09:41:47.091Z,18.60
2023-05-02T09:44:02.300Z,20.30
2023-05-02T09:46:13.909Z,18.70
2023-05-02T09:48:17.214Z,18.67
2023-05-02T09:50:43.035Z,19.50
2023-05-02T09:53:04.973Z,19.02
2023-05-02T09:55:25.087Z,17.15
2023-05-02T09:57:42.994Z,17.23
2023-05-02T10:00:00.915Z,16.55
2023-05-02T10:02:06.379Z,16.27
2023-05-02T10:04:17.598Z,16.20
2023-05-02T10:06:23.685Z,16.85
2023-05-02T10:08:29.370Z,15.77
2023-05-02T10:10:35.175Z,15.50
2023-05-02T10:12:40.266Z,14.90
2023-05-02T10:14:48.748Z,13.82
2023-05-02T10:17:13.861Z,13.27
2023-05-02T10:19:22.603Z,13.30
2023-05-02T10:21:30.787Z,13.93
2023-05-02T10:23:36.203Z,12.45
2023-05-02T10:25:54.424Z,11.60
2023-05-02T10:28:15.504Z,11.00
2023-05-02T10:30:23.197Z,12.40
2023-05-02T10:32:29.857Z,12.70
2023-05-02T10:34:35.732Z,14.55
2023-05-02T10:36:44.190Z,13.30
2023-05-02T10:38:50.262Z,14.68
2023-05-02T10:41:04.244Z,17.35
2023-05-02T10:43:08.365Z,14.50
2023-05-02T10:45:31.601Z,16.90
2023-05-02T10:47:33.661Z,13.43
2023-05-02T10:49:50.230Z,22.20
2023-05-02T10:51:51.707Z,13.00
2023-05-02T10:53:53.562Z,14.13
2023-05-02T10:56:22.599Z,15.00
2023-05-02T10:58:24.222Z,12.32
2023-05-02T11:00:33.810Z,12.30
2023-05-02T11:02:37.969Z,12.85
2023-05-02T11:05:02.948Z,11.68
2023-05-02T11:07:04.933Z,12.90
2023-05-02T11:09:21.547Z,12.27
2023-05-02T11:11:55.011Z,11.10
2023-05-02T11:14:02.656Z,12.00
2023-05-02T11:16:06.598Z,12.07
2023-05-02T11:18:14.701Z,11.80
2023-05-02T11:20:21.384Z,10.57
2023-05-02T11:22:27.203Z,10.18
2023-05-02T11:24:42.294Z,9.25
2023-05-02T11:26:45.580Z,8.57
2023-05-02T11:28:49.417Z,7.95
2023-05-02T11:31:12.172Z,8.23
2023-05-02T11:33:18.677Z,8.40
2023-05-02T11:35:24.390Z,6.43
2023-05-02T11:37:30.310Z,6.40
2023-05-02T11:39:34.237Z,6.72
2023-05-02T11:41:46.493Z,5.53
2023-05-02T11:44:05.186Z,6.40
2023-05-02T11:46:07.963Z,7.03
2023-05-02T11:48:14.257Z,5.00
2023-05-02T11:50:30.004Z,4.95
2023-05-02T11:52:41.462Z,4.93
2023-05-02T11:54:58.036Z,4.20
2023-05-02T11:57:18.490Z,3.70
2023-05-02T11:59:25.119Z,4.40
2023-05-02T12:01:28.502Z,3.75
2023-05-02T12:03:34.209Z,4.18
2023-05-02T12:05:41.378Z,4.00
2023-05-02T12:07:47.186Z,3.17
2023-05-02T12:09:55.167Z,4.03
2023-05-02T12:11:59.485Z,5.45
2023-05-02T12:14:07.398Z,4.68
2023-05-02T12:16:12.396Z,5.22
2023-05-02T12:18:19.443Z,4.78
2023-05-02T12:20:24.229Z,4.60
2023-05-02T12:22:29.725Z,5.20
2023-05-02T12:24:58.369Z,4.28
2023-05-02T12:27:27.129Z,4.43
2023-05-02T12:29:44.978Z,4.75
2023-05-02T12:31:52.937Z,4.70
2023-05-02T12:33:57.679Z,4.80
2023-05-02T12:36:07.036Z,4.43
2023-05-02T12:38:22.904Z,3.47
2023-05-02T12:40:24.551Z,2.97
2023-05-02T12:42:26.797Z,3.30
2023-05-02T12:44:39.682Z,3.33
2023-05-02T12:46:58.470Z,4.22
2023-05-02T12:49:11.908Z,8.65
2023-05-02T12:51:23.677Z,5.57
2023-05-02T12:53:39.583Z,4.60
2023-05-02T12:55:41.505Z,4.68
2023-05-02T12:57:43.408Z,3.78
2023-05-02T12:59:44.946Z,3.88
2023-05-02T13:01:46.647Z,3.33
2023-05-02T13:03:51.043Z,4.28
2023-05-02T13:05:55.808Z,3.65
2023-05-02T13:07:58.542Z,3.55
2023-05-02T13:10:00.161Z,3.65
2023-05-02T13:12:03.595Z,3.17
2023-05-02T13:14:06.037Z,2.65
2023-05-02T13:16:08.331Z,3.33
2023-05-02T13:18:10.138Z,3.38
2023-05-02T13:20:12.279Z,3.13
2023-05-02T13:22:13.790Z,3.00
2023-05-02T13:24:17.336Z,3.05
2023-05-02T13:26:18.864Z,2.83
2023-05-02T13:28:20.395Z,2.75
2023-05-02T13:30:21.899Z,2.45
2023-05-02T13:32:23.434Z,2.28
2023-05-02T13:34:24.998Z,2.00
2023-05-02T13:36:27.037Z,2.00
2023-05-02T13:38:28.543Z,2.22
2023-05-02T13:40:30.525Z,2.55
2023-05-02T13:42:32.050Z,2.67
2023-05-02T13:44:33.558Z,2.67
2023-05-02T13:46:37.499Z,2.42
2023-05-02T13:48:39.278Z,2.60
2023-05-02T13:50:40.761Z,2.55
2023-05-02T13:52:42.286Z,2.33
2023-05-02T13:54:43.783Z,1.83
2023-05-02T13:56:45.478Z,1.95
2023-05-02T13:58:46.993Z,2.05
2023-05-02T14:00:48.962Z,2.35
2023-05-02T14:02:50.590Z,2.22
2023-05-02T14:04:52.451Z,1.73
2023-05-02T14:06:54.083Z,1.83
2023-05-02T14:08:55.752Z,1.33
2023-05-02T14:10:57.333Z,1.98
2023-05-02T14:12:58.830Z,1.88
2023-05-02T14:15:00.439Z,1.85
2023-05-02T14:17:02.733Z,2.42
2023-05-02T14:19:04.304Z,1.80
2023-05-02T14:21:05.957Z,1.80
2023-05-02T14:23:07.900Z,2.00
2023-05-02T14:25:09.488Z,1.80
2023-05-02T14:27:13.139Z,1.58
2023-05-02T14:29:14.706Z,1.75
2023-05-02T14:31:16.351Z,2.30
2023-05-02T14:33:17.918Z,2.03
2023-05-02T14:35:19.472Z,2.10
2023-05-02T14:37:20.980Z,2.53
2023-05-02T14:39:22.553Z,2.30
2023-05-02T14:41:24.120Z,2.13
2023-05-02T14:43:26.738Z,1.50
2023-05-02T14:45:28.273Z,1.83
2023-05-02T14:47:32.801Z,1.45
2023-05-02T14:49:34.641Z,1.63
2023-05-02T14:51:39.543Z,1.60
2023-05-02T14:53:41.288Z,1.48
2023-05-02T14:55:43.309Z,1.92
2023-05-02T14:57:44.874Z,1.75
2023-05-02T14:59:47.115Z,1.30
2023-05-02T15:01:49.151Z,1.52
2023-05-02T15:04:05.922Z,1.30
2023-05-02T15:06:09.690Z,1.63
2023-05-02T15:08:11.265Z,1.40
2023-05-02T15:10:12.826Z,1.60
2023-05-02T15:12:14.436Z,1.50
2023-05-02T15:14:16.011Z,1.70
2023-05-02T15:16:17.627Z,1.60
2023-05-02T15:18:19.165Z,1.77
2023-05-02T15:20:20.903Z,1.50
2023-05-02T15:22:24.214Z,1.30
2023-05-02T15:24:25.988Z,1.25
2023-05-02T15:26:27.564Z,1.50
2023-05-02T15:28:29.080Z,1.70
2023-05-02T15:30:30.636Z,1.30
2023-05-02T15:32:32.618Z,1.35
2023-05-02T15:34:34.164Z,1.70
2023-05-02T15:36:38.391Z,1.95
2023-05-02T15:38:42.716Z,1.52
2023-05-02T15:40:44.265Z,1.60
2023-05-02T15:42:45.937Z,1.90
2023-05-02T15:44:47.440Z,2.00
2023-05-02T15:46:49.514Z,2.53
2023-05-02T15:48:51.286Z,1.73
2023-05-02T15:50:52.970Z,1.92
2023-05-02T15:52:54.574Z,2.13
2023-05-02T15:54:56.259Z,1.90
2023-05-02T15:56:57.856Z,1.83
2023-05-02T15:58:59.391Z,2.20
2023-05-02T16:01:00.926Z,1.33
2023-05-02T16:03:03.969Z,1.30
2023-05-02T16:05:06.060Z,1.85
2023-05-02T16:07:07.582Z,1.55
2023-05-02T16:09:10.084Z,1.55
2023-05-02T16:11:11.609Z,1.40
2023-05-02T16:13:13.097Z,1.60
2023-05-02T16:15:14.673Z,1.30
2023-05-02T16:17:16.242Z,1.40
2023-05-02T16:19:17.812Z,2.03
2023-05-02T16:21:19.375Z,1.48
2023-05-02T16:23:22.152Z,1.58
2023-05-02T16:25:23.734Z,1.55
2023-05-02T16:27:25.497Z,1.67
2023-05-02T16:29:27.015Z,1.60
2023-05-02T16:31:29.150Z,1.40
2023-05-02T16:33:30.728Z,1.38
2023-05-02T16:35:32.212Z,1.67
2023-05-02T16:37:34.890Z,1.75
2023-05-02T16:39:36.617Z,1.52
2023-05-02T16:41:38.198Z,1.10
2023-05-02T16:43:39.746Z,1.50
2023-05-02T16:45:41.230Z,1.77
2023-05-02T16:47:43.119Z,1.60
2023-05-02T16:49:45.180Z,1.40
2023-05-02T16:51:51.321Z,1.77
2023-05-02T16:53:52.824Z,1.60
2023-05-02T16:55:54.590Z,1.60
2023-05-02T16:57:56.449Z,1.40
2023-05-02T16:59:58.626Z,1.55
2023-05-02T17:02:00.268Z,1.20
2023-05-02T17:04:01.774Z,1.63
2023-05-02T17:06:03.437Z,2.08
2023-05-02T17:08:04.994Z,1.92
2023-05-02T17:10:07.458Z,1.70
2023-05-02T17:12:13.090Z,1.95
2023-05-02T17:14:15.427Z,2.28
2023-05-02T17:16:18.051Z,2.10
2023-05-02T17:18:19.704Z,2.03
2023-05-02T17:20:21.559Z,2.63
2023-05-02T17:22:23.180Z,1.65
2023-05-02T17:24:25.002Z,1.90
2023-05-02T17:26:26.501Z,2.08
2023-05-02T17:28:28.050Z,2.03
2023-05-02T17:30:30.564Z,2.47
2023-05-02T17:32:34.904Z,2.58
2023-05-02T17:34:37.584Z,2.30
2023-05-02T17:36:42.008Z,2.50
2023-05-02T17:38:45.070Z,2.80
2023-05-02T17:40:46.646Z,2.50
2023-05-02T17:42:48.928Z,2.17
2023-05-02T17:44:52.298Z,2.67
2023-05-02T17:46:53.907Z,2.80
2023-05-02T17:48:55.423Z,2.78
2023-05-02T17:50:57.027Z,2.63
2023-05-02T17:52:59.243Z,3.00
2023-05-02T17:55:00.872Z,2.72
2023-05-02T17:57:02.420Z,2.92
2023-05-02T17:59:04.992Z,2.80
2023-05-02T18:01:10.549Z,3.03
2023-05-02T18:03:12.277Z,3.08
2023-05-02T18:05:13.977Z,2.97
2023-05-02T18:07:16.198Z,3.17
2023-05-02T18:09:17.734Z,3.42
2023-05-02T18:11:20.096Z,3.60
2023-05-02T18:13:21.681Z,3.55
2023-05-02T18:15:23.269Z,3.25
2023-05-02T18:17:25.061Z,3.67
2023-05-02T18:19:26.622Z,3.25
2023-05-02T18:21:28.263Z,2.67
2023-05-02T18:23:29.893Z,2.78
2023-05-02T18:25:35.266Z,3.45
2023-05-02T18:27:36.767Z,3.20
2023-05-02T18:29:38.425Z,5.10
2023-05-02T18:31:40.524Z,3.97
2023-05-02T18:33:42.196Z,4.68
2023-05-02T18:35:47.666Z,6.85
2023-05-02T18:37:49.151Z,9.73
2023-05-02T18:39:51.334Z,12.07
2023-05-02T18:41:52.800Z,10.13
2023-05-02T18:43:54.695Z,10.90
2023-05-02T18:45:56.254Z,8.32
2023-05-02T18:47:57.867Z,7.53
2023-05-02T18:49:59.853Z,5.07
2023-05-02T18:52:01.481Z,4.25
2023-05-02T18:54:03.039Z,3.67
2023-05-02T18:56:12.312Z,3.90
2023-05-02T18:58:13.972Z,4.82
2023-05-02T19:00:16.178Z,4.47
2023-05-02T19:02:17.678Z,4.72
2023-05-02T19:04:19.516Z,3.83
2023-05-02T19:06:21.594Z,3.90
2023-05-02T19:08:23.104Z,5.43
2023-05-02T19:10:24.657Z,5.18
2023-05-02T19:12:26.205Z,4.10
2023-05-02T19:14:27.798Z,4.80
2023-05-02T19:16:29.328Z,4.07
2023-05-02T19:18:30.964Z,4.50
2023-05-02T19:20:32.485Z,4.63
2023-05-02T19:22:34.680Z,4.47
2023-05-02T19:24:36.390Z,4.70
2023-05-02T19:26:37.859Z,5.03
2023-05-02T19:28:39.724Z,5.07
2023-05-02T19:30:42.457Z,4.25
2023-05-02T19:32:44.014Z,3.63
2023-05-02T19:34:45.538Z,4.30
2023-05-02T19:36:46.990Z,4.55
2023-05-02T19:38:50.535Z,3.72
2023-05-02T19:40:52.105Z,3.67
2023-05-02T19:42:53.707Z,3.78
2023-05-02T19:44:55.437Z,3.97
2023-05-02T19:46:56.914Z,3.80
2023-05-02T19:48:58.462Z,4.00
2023-05-02T19:51:04.069Z,3.70
2023-05-02T19:53:05.621Z,3.88
2023-05-02T19:55:10.941Z,3.70
2023-05-02T19:57:12.467Z,4.03
2023-05-02T19:59:14.020Z,3.58
2023-05-02T20:01:15.632Z,4.68
2023-05-02T20:03:17.579Z,3.13
2023-05-02T20:05:19.526Z,3.47
2023-05-02T20:07:21.088Z,4.55
2023-05-02T20:09:22.624Z,3.85
2023-05-02T20:11:25.916Z,3.80
2023-05-02T20:13:27.558Z,4.03
2023-05-02T20:15:29.386Z,3.53
2023-05-02T20:17:30.965Z,4.20
2023-05-02T20:19:32.748Z,4.15
2023-05-02T20:21:34.332Z,4.05
2023-05-02T20:23:35.956Z,4.00
2023-05-02T20:25:37.448Z,5.53
2023-05-02T20:27:39.288Z,3.80
2023-05-02T20:29:40.904Z,3.67
2023-05-02T20:31:42.486Z,3.97
2023-05-02T20:33:45.862Z,3.50
2023-05-02T20:35:54.361Z,3.25
2023-05-02T20:37:55.886Z,3.42
2023-05-02T20:39:57.515Z,2.85
2023-05-02T20:41:58.983Z,4.32
2023-05-02T20:44:02.683Z,3.33
2023-05-02T20:46:11.910Z,4.35
2023-05-02T20:48:16.027Z,4.28
2023-05-02T20:50:17.776Z,3.58
2023-05-02T20:52:19.602Z,3.90
2023-05-02T20:54:21.126Z,4.35
2023-05-02T20:56:23.121Z,4.03
2023-05-02T20:58:24.676Z,4.93
2023-05-02T21:00:26.261Z,4.15
2023-05-02T21:02:28.008Z,4.43
2023-05-02T21:04:29.545Z,4.68
2023-05-02T21:06:33.763Z,5.18
2023-05-02T21:08:35.594Z,4.90
2023-05-02T21:10:37.093Z,4.38
2023-05-02T21:12:38.665Z,4.32
2023-05-02T21:14:40.478Z,5.28
2023-05-02T21:16:42.042Z,4.15
2023-05-02T21:18:43.699Z,3.78
2023-05-02T21:20:48.138Z,5.00
2023-05-02T21:22:49.819Z,4.80
2023-05-02T21:24:51.394Z,4.50
2023-05-02T21:26:52.960Z,4.63
2023-05-02T21:28:54.481Z,4.18
2023-05-02T21:30:56.176Z,5.40
2023-05-02T21:32:57.735Z,5.30
2023-05-02T21:34:59.420Z,5.38
2023-05-02T21:37:01.059Z,4.90
2023-05-02T21:39:02.706Z,5.68
2023-05-02T21:41:04.855Z,5.22
2023-05-02T21:43:06.424Z,4.57
2023-05-02T21:45:08.560Z,4.88
2023-05-02T21:47:10.182Z,4.05
2023-05-02T21:49:11.849Z,5.43
2023-05-02T21:51:14.174Z,5.47
2023-05-02T21:53:15.814Z,5.07
2023-05-02T21:55:17.351Z,5.25
2023-05-02T21:57:21.906Z,4.15
2023-05-02T21:59:23.392Z,4.75
2023-05-02T22:01:25.316Z,4.22
2023-05-02T22:03:27.489Z,4.97
2023-05-02T22:05:29.056Z,5.65
2023-05-02T22:07:30.574Z,5.13
2023-05-02T22:09:33.499Z,5.20
2023-05-02T22:11:35.303Z,5.72
2023-05-02T22:13:37.038Z,5.45
2023-05-02T22:15:48.074Z,5.82
2023-05-02T22:17:50.580Z,5.90
2023-05-02T22:19:52.286Z,6.05
2023-05-02T22:21:55.539Z,5.00
2023-05-02T22:23:57.257Z,7.38
2023-05-02T22:25:59.054Z,6.95
2023-05-02T22:28:03.979Z,5.50
2023-05-02T22:30:07.471Z,6.60
2023-05-02T22:32:09.022Z,7.38
2023-05-02T22:34:11.773Z,6.43
2023-05-02T22:36:13.325Z,7.28
2023-05-02T22:38:16.658Z,6.82
2023-05-02T22:40:18.304Z,5.93
2023-05-02T22:42:20.745Z,6.95
2023-05-02T22:44:22.245Z,7.00
2023-05-02T22:46:23.706Z,6.00
2023-05-02T22:48:25.435Z,6.53
2023-05-02T22:50:27.446Z,7.20
2023-05-02T22:52:30.028Z,6.47
2023-05-02T22:54:31.544Z,6.22
2023-05-02T22:56:32.999Z,7.03
2023-05-02T22:58:34.652Z,6.40
2023-05-02T23:00:36.470Z,6.20
2023-05-02T23:02:38.374Z,6.05
2023-05-02T23:04:39.999Z,6.40
2023-05-02T23:06:41.491Z,5.53
2023-05-02T23:08:43.133Z,6.78
2023-05-02T23:10:44.644Z,6.95
2023-05-02T23:12:46.195Z,6.22
2023-05-02T23:14:47.756Z,7.10
2023-05-02T23:16:53.814Z,7.38
2023-05-02T23:18:55.900Z,6.72
2023-05-02T23:20:57.389Z,7.38
2023-05-02T23:22:59.118Z,6.78
2023-05-02T23:25:00.680Z,7.30
2023-05-02T23:27:02.483Z,6.32
2023-05-02T23:29:05.771Z,5.53
2023-05-02T23:31:07.779Z,7.57
2023-05-02T23:33:09.504Z,6.70
2023-05-02T23:35:11.831Z,6.90
2023-05-02T23:37:14.239Z,5.78
2023-05-02T23:39:15.821Z,6.65
2023-05-02T23:41:17.261Z,7.60
2023-05-02T23:43:18.876Z,7.22
2023-05-02T23:45:21.209Z,7.38
2023-05-02T23:47:22.910Z,7.22
2023-05-02T23:49:24.496Z,7.68
2023-05-02T23:51:27.648Z,6.28
2023-05-02T23:53:29.155Z,6.70
2023-05-02T23:55:31.794Z,5.85
2023-05-02T23:57:33.268Z,6.70
2023-05-02T23:59:34.834Z,6.43
